sensor_id;sensor_type;location;lat;lon;timestamp;temperature;humidity
18043;DHT22;9146;48.074;11.968;2023-07-30T00:00:29;17.10;99.90
18043;DHT22;9146;48.074;11.968;2023-07-30T00:02:56;17.10;99.90
18043;DHT22;9146;48.074;11.968;2023-07-30T00:05:23;17.10;99.90
18043;DHT22;9146;48.074;11.968;2023-07-30T00:07:51;17.00;99.90
18043;DHT22;9146;48.074;11.968;2023-07-30T00:10:19;17.00;99.90
18043;DHT22;9146;48.074;11.968;2023-07-30T00:12:46;17.00;99.90
18043;DHT22;9146;48.074;11.968;2023-07-30T00:15:13;17.00;99.90
18043;DHT22;9146;48.074;11.968;2023-07-30T00:17:40;16.90;99.90
18043;DHT22;9146;48.074;11.968;2023-07-30T00:20:08;16.90;99.90
18043;DHT22;9146;48.074;11.968;2023-07-30T00:22:35;16.90;99.90
18043;DHT22;9146;48.074;11.968;2023-07-30T00:25:04;16.80;99.90
18043;DHT22;9146;48.074;11.968;2023-07-30T00:27:33;16.80;99.90
18043;DHT22;9146;48.074;11.968;2023-07-30T00:30:00;16.80;99.90
18043;DHT22;9146;48.074;11.968;2023-07-30T00:32:28;16.70;99.90
18043;DHT22;9146;48.074;11.968;2023-07-30T00:34:54;16.80;99.90
18043;DHT22;9146;48.074;11.968;2023-07-30T00:37:21;16.70;99.90
18043;DHT22;9146;48.074;11.968;2023-07-30T00:39:48;16.60;99.90
18043;DHT22;9146;48.074;11.968;2023-07-30T00:42:17;16.70;99.90
18043;DHT22;9146;48.074;11.968;2023-07-30T00:44:44;16.70;99.90
18043;DHT22;9146;48.074;11.968;2023-07-30T00:47:11;16.60;99.90
18043;DHT22;9146;48.074;11.968;2023-07-30T00:49:38;16.60;99.90
18043;DHT22;9146;48.074;11.968;2023-07-30T00:52:06;16.60;99.90
18043;DHT22;9146;48.074;11.968;2023-07-30T00:54:33;16.60;99.90
18043;DHT22;9146;48.074;11.968;2023-07-30T00:57:00;16.60;99.90
18043;DHT22;9146;48.074;11.968;2023-07-30T00:59:29;16.60;99.90
18043;DHT22;9146;48.074;11.968;2023-07-30T01:01:57;16.50;99.90
18043;DHT22;9146;48.074;11.968;2023-07-30T01:04:25;16.50;99.90
18043;DHT22;9146;48.074;11.968;2023-07-30T01:06:52;16.50;99.90
18043;DHT22;9146;48.074;11.968;2023-07-30T01:09:19;16.50;99.90
18043;DHT22;9146;48.074;11.968;2023-07-30T01:11:46;16.40;99.90
18043;DHT22;9146;48.074;11.968;2023-07-30T01:14:16;16.50;99.90
18043;DHT22;9146;48.074;11.968;2023-07-30T01:16:46;16.50;99.90
18043;DHT22;9146;48.074;11.968;2023-07-30T01:19:12;16.50;99.90
18043;DHT22;9146;48.074;11.968;2023-07-30T01:21:41;16.50;99.90
18043;DHT22;9146;48.074;11.968;2023-07-30T01:24:08;16.50;99.90
18043;DHT22;9146;48.074;11.968;2023-07-30T01:26:44;16.50;99.90
18043;DHT22;9146;48.074;11.968;2023-07-30T01:29:13;16.50;99.90
18043;DHT22;9146;48.074;11.968;2023-07-30T01:31:42;16.50;99.90
18043;DHT22;9146;48.074;11.968;2023-07-30T01:34:11;16.50;99.90
18043;DHT22;9146;48.074;11.968;2023-07-30T01:36:38;16.50;99.90
18043;DHT22;9146;48.074;11.968;2023-07-30T01:39:09;16.40;99.90
18043;DHT22;9146;48.074;11.968;2023-07-30T01:41:37;16.50;99.90
18043;DHT22;9146;48.074;11.968;2023-07-30T01:44:04;16.40;99.90
18043;DHT22;9146;48.074;11.968;2023-07-30T01:46:31;16.40;99.90
18043;DHT22;9146;48.074;11.968;2023-07-30T01:48:57;16.40;99.90
18043;DHT22;9146;48.074;11.968;2023-07-30T01:51:24;16.40;99.90
18043;DHT22;9146;48.074;11.968;2023-07-30T01:53:51;16.30;99.90
18043;DHT22;9146;48.074;11.968;2023-07-30T01:56:19;16.30;99.90
18043;DHT22;9146;48.074;11.968;2023-07-30T01:58:46;16.30;99.90
18043;DHT22;9146;48.074;11.968;2023-07-30T02:01:13;16.30;99.90
18043;DHT22;9146;48.074;11.968;2023-07-30T02:03:40;16.30;99.90
18043;DHT22;9146;48.074;11.968;2023-07-30T02:06:07;16.30;99.90
18043;DHT22;9146;48.074;11.968;2023-07-30T02:08:33;16.30;99.90
18043;DHT22;9146;48.074;11.968;2023-07-30T02:11:00;16.30;99.90
18043;DHT22;9146;48.074;11.968;2023-07-30T02:13:29;16.30;99.90
18043;DHT22;9146;48.074;11.968;2023-07-30T02:15:56;16.30;99.90
18043;DHT22;9146;48.074;11.968;2023-07-30T02:18:22;16.30;99.90
18043;DHT22;9146;48.074;11.968;2023-07-30T02:20:49;16.30;99.90
18043;DHT22;9146;48.074;11.968;2023-07-30T02:23:16;16.20;99.90
18043;DHT22;9146;48.074;11.968;2023-07-30T02:25:43;16.20;99.90
18043;DHT22;9146;48.074;11.968;2023-07-30T02:28:10;16.20;99.90
18043;DHT22;9146;48.074;11.968;2023-07-30T02:30:39;16.20;99.90
18043;DHT22;9146;48.074;11.968;2023-07-30T02:33:05;16.10;99.90
18043;DHT22;9146;48.074;11.968;2023-07-30T02:35:32;16.10;99.90
18043;DHT22;9146;48.074;11.968;2023-07-30T02:37:59;16.00;99.90
18043;DHT22;9146;48.074;11.968;2023-07-30T02:40:26;16.00;99.90
18043;DHT22;9146;48.074;11.968;2023-07-30T02:42:53;15.90;99.90
18043;DHT22;9146;48.074;11.968;2023-07-30T02:45:20;15.90;99.90
18043;DHT22;9146;48.074;11.968;2023-07-30T02:47:48;15.90;99.90
18043;DHT22;9146;48.074;11.968;2023-07-30T02:50:15;15.90;99.90
18043;DHT22;9146;48.074;11.968;2023-07-30T02:52:42;15.80;99.90
18043;DHT22;9146;48.074;11.968;2023-07-30T02:55:09;15.80;99.90
18043;DHT22;9146;48.074;11.968;2023-07-30T02:57:36;15.90;99.90
18043;DHT22;9146;48.074;11.968;2023-07-30T03:00:03;15.90;99.90
18043;DHT22;9146;48.074;11.968;2023-07-30T03:02:30;15.90;99.90
18043;DHT22;9146;48.074;11.968;2023-07-30T03:04:58;15.90;99.90
18043;DHT22;9146;48.074;11.968;2023-07-30T03:07:26;15.90;99.90
18043;DHT22;9146;48.074;11.968;2023-07-30T03:09:52;16.00;99.90
18043;DHT22;9146;48.074;11.968;2023-07-30T03:12:19;16.00;99.90
18043;DHT22;9146;48.074;11.968;2023-07-30T03:14:46;16.10;99.90
18043;DHT22;9146;48.074;11.968;2023-07-30T03:17:13;16.10;99.90
18043;DHT22;9146;48.074;11.968;2023-07-30T03:19:40;16.20;99.90
18043;DHT22;9146;48.074;11.968;2023-07-30T03:22:08;16.30;99.90
18043;DHT22;9146;48.074;11.968;2023-07-30T03:24:35;16.40;99.90
18043;DHT22;9146;48.074;11.968;2023-07-30T03:27:02;16.40;99.90
18043;DHT22;9146;48.074;11.968;2023-07-30T03:29:29;16.50;99.90
18043;DHT22;9146;48.074;11.968;2023-07-30T03:31:56;16.50;99.90
18043;DHT22;9146;48.074;11.968;2023-07-30T03:34:23;16.60;99.90
18043;DHT22;9146;48.074;11.968;2023-07-30T03:36:50;16.60;99.90
18043;DHT22;9146;48.074;11.968;2023-07-30T03:39:18;16.70;99.90
18043;DHT22;9146;48.074;11.968;2023-07-30T03:41:45;16.70;99.90
18043;DHT22;9146;48.074;11.968;2023-07-30T03:44:12;16.80;99.90
18043;DHT22;9146;48.074;11.968;2023-07-30T03:46:38;16.80;99.90
18043;DHT22;9146;48.074;11.968;2023-07-30T03:49:05;16.90;99.90
18043;DHT22;9146;48.074;11.968;2023-07-30T03:51:32;16.90;99.90
18043;DHT22;9146;48.074;11.968;2023-07-30T03:53:59;16.90;99.90
18043;DHT22;9146;48.074;11.968;2023-07-30T03:56:27;16.90;99.90
18043;DHT22;9146;48.074;11.968;2023-07-30T03:58:54;16.90;99.90
18043;DHT22;9146;48.074;11.968;2023-07-30T04:01:21;16.80;99.90
18043;DHT22;9146;48.074;11.968;2023-07-30T04:03:48;16.80;99.90
18043;DHT22;9146;48.074;11.968;2023-07-30T04:06:15;16.80;99.90
18043;DHT22;9146;48.074;11.968;2023-07-30T04:08:42;16.70;99.90
18043;DHT22;9146;48.074;11.968;2023-07-30T04:11:09;16.70;99.90
18043;DHT22;9146;48.074;11.968;2023-07-30T04:13:37;16.60;99.90
18043;DHT22;9146;48.074;11.968;2023-07-30T04:16:04;16.50;99.90
18043;DHT22;9146;48.074;11.968;2023-07-30T04:18:31;16.50;99.90
18043;DHT22;9146;48.074;11.968;2023-07-30T04:20:58;16.50;99.90
18043;DHT22;9146;48.074;11.968;2023-07-30T04:23:25;16.50;99.90
18043;DHT22;9146;48.074;11.968;2023-07-30T04:25:52;16.50;99.90
18043;DHT22;9146;48.074;11.968;2023-07-30T04:28:18;16.40;99.90
18043;DHT22;9146;48.074;11.968;2023-07-30T04:30:47;16.40;99.90
18043;DHT22;9146;48.074;11.968;2023-07-30T04:33:14;16.40;99.90
18043;DHT22;9146;48.074;11.968;2023-07-30T04:35:41;16.40;99.90
18043;DHT22;9146;48.074;11.968;2023-07-30T04:38:08;16.40;99.90
18043;DHT22;9146;48.074;11.968;2023-07-30T04:40:35;16.40;99.90
18043;DHT22;9146;48.074;11.968;2023-07-30T04:43:02;16.50;99.90
18043;DHT22;9146;48.074;11.968;2023-07-30T04:45:28;16.50;99.90
18043;DHT22;9146;48.074;11.968;2023-07-30T04:47:57;16.60;99.90
18043;DHT22;9146;48.074;11.968;2023-07-30T04:50:24;16.80;99.90
18043;DHT22;9146;48.074;11.968;2023-07-30T04:52:51;17.00;99.90
18043;DHT22;9146;48.074;11.968;2023-07-30T04:55:18;17.10;99.90
18043;DHT22;9146;48.074;11.968;2023-07-30T04:57:45;17.20;99.90
18043;DHT22;9146;48.074;11.968;2023-07-30T05:00:12;17.30;99.90
18043;DHT22;9146;48.074;11.968;2023-07-30T05:02:39;17.40;99.90
18043;DHT22;9146;48.074;11.968;2023-07-30T05:05:08;17.50;99.90
18043;DHT22;9146;48.074;11.968;2023-07-30T05:07:35;17.60;99.90
18043;DHT22;9146;48.074;11.968;2023-07-30T05:10:06;17.60;99.90
18043;DHT22;9146;48.074;11.968;2023-07-30T05:12:35;17.80;99.90
18043;DHT22;9146;48.074;11.968;2023-07-30T05:15:03;17.90;99.90
18043;DHT22;9146;48.074;11.968;2023-07-30T05:17:30;18.00;99.90
18043;DHT22;9146;48.074;11.968;2023-07-30T05:19:57;18.20;99.90
18043;DHT22;9146;48.074;11.968;2023-07-30T05:22:25;18.30;99.90
18043;DHT22;9146;48.074;11.968;2023-07-30T05:24:52;18.50;99.90
18043;DHT22;9146;48.074;11.968;2023-07-30T05:27:19;18.70;99.90
18043;DHT22;9146;48.074;11.968;2023-07-30T05:29:46;18.70;99.90
18043;DHT22;9146;48.074;11.968;2023-07-30T05:32:12;18.80;99.90
18043;DHT22;9146;48.074;11.968;2023-07-30T05:34:39;18.70;99.90
18043;DHT22;9146;48.074;11.968;2023-07-30T05:37:06;18.70;99.90
18043;DHT22;9146;48.074;11.968;2023-07-30T05:39:35;18.70;99.90
18043;DHT22;9146;48.074;11.968;2023-07-30T05:42:01;18.60;99.90
18043;DHT22;9146;48.074;11.968;2023-07-30T05:44:28;18.40;99.90
18043;DHT22;9146;48.074;11.968;2023-07-30T05:46:55;18.30;99.90
18043;DHT22;9146;48.074;11.968;2023-07-30T05:49:24;18.40;99.90
18043;DHT22;9146;48.074;11.968;2023-07-30T05:51:51;18.50;99.90
18043;DHT22;9146;48.074;11.968;2023-07-30T05:54:18;18.60;99.90
18043;DHT22;9146;48.074;11.968;2023-07-30T05:56:46;18.80;99.90
18043;DHT22;9146;48.074;11.968;2023-07-30T05:59:13;18.90;99.90
18043;DHT22;9146;48.074;11.968;2023-07-30T06:01:40;19.00;99.90
18043;DHT22;9146;48.074;11.968;2023-07-30T06:04:06;19.20;99.90
18043;DHT22;9146;48.074;11.968;2023-07-30T06:06:33;19.30;99.90
18043;DHT22;9146;48.074;11.968;2023-07-30T06:09:00;19.40;99.90
18043;DHT22;9146;48.074;11.968;2023-07-30T06:11:27;19.50;99.90
18043;DHT22;9146;48.074;11.968;2023-07-30T06:13:55;19.60;99.90
18043;DHT22;9146;48.074;11.968;2023-07-30T06:16:22;19.70;99.90
18043;DHT22;9146;48.074;11.968;2023-07-30T06:18:50;19.80;99.90
18043;DHT22;9146;48.074;11.968;2023-07-30T06:21:16;19.80;99.90
18043;DHT22;9146;48.074;11.968;2023-07-30T06:23:43;19.90;99.90
18043;DHT22;9146;48.074;11.968;2023-07-30T06:26:11;20.00;99.90
18043;DHT22;9146;48.074;11.968;2023-07-30T06:28:38;20.00;99.90
18043;DHT22;9146;48.074;11.968;2023-07-30T06:31:09;20.10;99.90
18043;DHT22;9146;48.074;11.968;2023-07-30T06:33:36;20.20;99.90
18043;DHT22;9146;48.074;11.968;2023-07-30T06:36:04;20.30;99.90
18043;DHT22;9146;48.074;11.968;2023-07-30T06:38:30;20.30;99.90
18043;DHT22;9146;48.074;11.968;2023-07-30T06:40:57;20.30;99.90
18043;DHT22;9146;48.074;11.968;2023-07-30T06:43:24;20.40;99.90
18043;DHT22;9146;48.074;11.968;2023-07-30T06:45:52;20.50;99.90
18043;DHT22;9146;48.074;11.968;2023-07-30T06:48:21;20.50;99.90
18043;DHT22;9146;48.074;11.968;2023-07-30T06:50:48;20.60;99.90
18043;DHT22;9146;48.074;11.968;2023-07-30T06:53:14;20.60;99.90
18043;DHT22;9146;48.074;11.968;2023-07-30T06:55:42;20.60;99.90
18043;DHT22;9146;48.074;11.968;2023-07-30T06:58:08;20.70;99.90
18043;DHT22;9146;48.074;11.968;2023-07-30T07:00:35;20.70;99.90
18043;DHT22;9146;48.074;11.968;2023-07-30T07:03:03;20.90;99.90
18043;DHT22;9146;48.074;11.968;2023-07-30T07:05:31;21.00;99.90
18043;DHT22;9146;48.074;11.968;2023-07-30T07:07:58;21.10;99.90
18043;DHT22;9146;48.074;11.968;2023-07-30T07:10:25;21.10;99.90
18043;DHT22;9146;48.074;11.968;2023-07-30T07:12:52;21.30;99.90
18043;DHT22;9146;48.074;11.968;2023-07-30T07:15:19;21.40;99.90
18043;DHT22;9146;48.074;11.968;2023-07-30T07:17:46;21.50;99.90
18043;DHT22;9146;48.074;11.968;2023-07-30T07:20:13;21.60;99.90
18043;DHT22;9146;48.074;11.968;2023-07-30T07:22:41;21.70;99.90
18043;DHT22;9146;48.074;11.968;2023-07-30T07:25:08;21.70;99.90
18043;DHT22;9146;48.074;11.968;2023-07-30T07:27:35;21.80;99.90
18043;DHT22;9146;48.074;11.968;2023-07-30T07:30:03;21.80;99.90
18043;DHT22;9146;48.074;11.968;2023-07-30T07:32:30;21.80;99.90
18043;DHT22;9146;48.074;11.968;2023-07-30T07:35:03;22.00;99.90
18043;DHT22;9146;48.074;11.968;2023-07-30T07:37:32;22.20;99.90
18043;DHT22;9146;48.074;11.968;2023-07-30T07:40:00;22.40;99.90
18043;DHT22;9146;48.074;11.968;2023-07-30T07:42:28;22.50;99.90
18043;DHT22;9146;48.074;11.968;2023-07-30T07:44:55;22.70;99.90
18043;DHT22;9146;48.074;11.968;2023-07-30T07:47:22;22.70;99.90
18043;DHT22;9146;48.074;11.968;2023-07-30T07:49:49;22.80;99.90
18043;DHT22;9146;48.074;11.968;2023-07-30T07:52:16;22.80;99.90
18043;DHT22;9146;48.074;11.968;2023-07-30T07:54:43;23.00;99.90
18043;DHT22;9146;48.074;11.968;2023-07-30T07:57:11;23.10;99.90
18043;DHT22;9146;48.074;11.968;2023-07-30T07:59:38;23.30;99.90
18043;DHT22;9146;48.074;11.968;2023-07-30T08:02:07;23.30;99.90
18043;DHT22;9146;48.074;11.968;2023-07-30T08:04:34;23.30;99.90
18043;DHT22;9146;48.074;11.968;2023-07-30T08:07:00;23.20;99.90
18043;DHT22;9146;48.074;11.968;2023-07-30T08:09:29;23.00;99.90
18043;DHT22;9146;48.074;11.968;2023-07-30T08:11:56;22.90;99.90
18043;DHT22;9146;48.074;11.968;2023-07-30T08:14:24;22.80;99.90
18043;DHT22;9146;48.074;11.968;2023-07-30T08:16:52;22.70;99.90
18043;DHT22;9146;48.074;11.968;2023-07-30T08:19:18;22.80;99.90
18043;DHT22;9146;48.074;11.968;2023-07-30T08:21:45;22.90;99.90
18043;DHT22;9146;48.074;11.968;2023-07-30T08:24:12;23.20;99.90
18043;DHT22;9146;48.074;11.968;2023-07-30T08:26:39;23.30;99.90
18043;DHT22;9146;48.074;11.968;2023-07-30T08:29:06;23.30;99.90
18043;DHT22;9146;48.074;11.968;2023-07-30T08:31:37;23.40;99.90
18043;DHT22;9146;48.074;11.968;2023-07-30T08:34:03;23.40;99.90
18043;DHT22;9146;48.074;11.968;2023-07-30T08:36:30;23.40;99.90
18043;DHT22;9146;48.074;11.968;2023-07-30T08:38:58;23.30;99.90
18043;DHT22;9146;48.074;11.968;2023-07-30T08:41:25;23.10;99.90
18043;DHT22;9146;48.074;11.968;2023-07-30T08:43:52;23.00;99.90
18043;DHT22;9146;48.074;11.968;2023-07-30T08:46:19;22.90;99.90
18043;DHT22;9146;48.074;11.968;2023-07-30T08:48:47;22.80;99.90
18043;DHT22;9146;48.074;11.968;2023-07-30T08:51:14;22.90;99.90
18043;DHT22;9146;48.074;11.968;2023-07-30T08:53:42;22.90;99.90
18043;DHT22;9146;48.074;11.968;2023-07-30T08:56:18;23.00;99.90
18043;DHT22;9146;48.074;11.968;2023-07-30T08:58:46;23.10;99.90
18043;DHT22;9146;48.074;11.968;2023-07-30T09:01:16;23.10;99.90
18043;DHT22;9146;48.074;11.968;2023-07-30T09:03:45;23.20;99.90
18043;DHT22;9146;48.074;11.968;2023-07-30T09:06:13;23.40;99.90
18043;DHT22;9146;48.074;11.968;2023-07-30T09:08:40;23.60;99.90
18043;DHT22;9146;48.074;11.968;2023-07-30T09:11:07;23.80;99.90
18043;DHT22;9146;48.074;11.968;2023-07-30T09:13:37;23.70;99.90
18043;DHT22;9146;48.074;11.968;2023-07-30T09:16:08;23.70;99.90
18043;DHT22;9146;48.074;11.968;2023-07-30T09:18:40;23.70;99.90
18043;DHT22;9146;48.074;11.968;2023-07-30T09:21:07;23.60;99.90
18043;DHT22;9146;48.074;11.968;2023-07-30T09:23:40;23.60;99.90
18043;DHT22;9146;48.074;11.968;2023-07-30T09:26:08;23.40;99.90
18043;DHT22;9146;48.074;11.968;2023-07-30T09:28:35;23.30;99.90
18043;DHT22;9146;48.074;11.968;2023-07-30T09:31:03;23.10;99.90
18043;DHT22;9146;48.074;11.968;2023-07-30T09:33:31;22.90;99.90
18043;DHT22;9146;48.074;11.968;2023-07-30T09:35:58;22.80;99.90
18043;DHT22;9146;48.074;11.968;2023-07-30T09:38:25;22.90;99.90
18043;DHT22;9146;48.074;11.968;2023-07-30T09:41:00;22.90;99.90
18043;DHT22;9146;48.074;11.968;2023-07-30T09:43:29;23.00;99.90
18043;DHT22;9146;48.074;11.968;2023-07-30T09:46:01;23.00;99.90
18043;DHT22;9146;48.074;11.968;2023-07-30T09:48:30;23.00;99.90
18043;DHT22;9146;48.074;11.968;2023-07-30T09:50:58;23.20;99.90
18043;DHT22;9146;48.074;11.968;2023-07-30T09:53:26;23.40;99.90
18043;DHT22;9146;48.074;11.968;2023-07-30T09:55:56;23.60;99.90
18043;DHT22;9146;48.074;11.968;2023-07-30T09:58:23;23.80;99.90
18043;DHT22;9146;48.074;11.968;2023-07-30T10:00:50;24.00;99.90
18043;DHT22;9146;48.074;11.968;2023-07-30T10:03:18;24.00;99.90
18043;DHT22;9146;48.074;11.968;2023-07-30T10:05:45;23.90;99.90
18043;DHT22;9146;48.074;11.968;2023-07-30T10:08:19;23.80;99.90
18043;DHT22;9146;48.074;11.968;2023-07-30T10:10:47;23.80;99.90
18043;DHT22;9146;48.074;11.968;2023-07-30T10:13:16;24.00;99.90
18043;DHT22;9146;48.074;11.968;2023-07-30T10:15:44;24.00;99.90
18043;DHT22;9146;48.074;11.968;2023-07-30T10:18:12;24.10;99.90
18043;DHT22;9146;48.074;11.968;2023-07-30T10:20:40;24.30;99.90
18043;DHT22;9146;48.074;11.968;2023-07-30T10:23:07;24.60;99.90
18043;DHT22;9146;48.074;11.968;2023-07-30T10:25:45;24.90;99.90
18043;DHT22;9146;48.074;11.968;2023-07-30T10:28:31;25.10;99.90
18043;DHT22;9146;48.074;11.968;2023-07-30T10:30:59;25.20;99.90
18043;DHT22;9146;48.074;11.968;2023-07-30T10:33:46;25.40;99.90
18043;DHT22;9146;48.074;11.968;2023-07-30T10:36:13;25.40;99.90
18043;DHT22;9146;48.074;11.968;2023-07-30T10:38:40;25.40;99.90
18043;DHT22;9146;48.074;11.968;2023-07-30T10:41:11;25.40;99.90
18043;DHT22;9146;48.074;11.968;2023-07-30T10:43:41;25.50;99.90
18043;DHT22;9146;48.074;11.968;2023-07-30T10:46:10;25.60;99.90
18043;DHT22;9146;48.074;11.968;2023-07-30T10:48:38;25.60;99.90
18043;DHT22;9146;48.074;11.968;2023-07-30T10:51:08;25.50;99.90
18043;DHT22;9146;48.074;11.968;2023-07-30T10:53:35;25.20;99.90
18043;DHT22;9146;48.074;11.968;2023-07-30T10:56:03;24.20;99.90
18043;DHT22;9146;48.074;11.968;2023-07-30T10:58:31;22.70;99.90
18043;DHT22;9146;48.074;11.968;2023-07-30T11:01:00;19.80;99.90
18043;DHT22;9146;48.074;11.968;2023-07-30T11:03:28;17.60;99.90
18043;DHT22;9146;48.074;11.968;2023-07-30T11:05:57;16.80;99.90
18043;DHT22;9146;48.074;11.968;2023-07-30T11:08:32;16.50;99.90
18043;DHT22;9146;48.074;11.968;2023-07-30T11:11:00;16.60;99.90
18043;DHT22;9146;48.074;11.968;2023-07-30T11:13:27;16.70;99.90
18043;DHT22;9146;48.074;11.968;2023-07-30T11:15:54;17.00;99.90
18043;DHT22;9146;48.074;11.968;2023-07-30T11:18:23;17.30;99.90
18043;DHT22;9146;48.074;11.968;2023-07-30T11:20:50;17.80;99.90
18043;DHT22;9146;48.074;11.968;2023-07-30T11:23:20;18.20;99.90
18043;DHT22;9146;48.074;11.968;2023-07-30T11:25:47;18.70;99.90
18043;DHT22;9146;48.074;11.968;2023-07-30T11:28:26;19.10;99.90
18043;DHT22;9146;48.074;11.968;2023-07-30T11:30:54;19.40;99.90
18043;DHT22;9146;48.074;11.968;2023-07-30T11:33:23;19.80;99.90
18043;DHT22;9146;48.074;11.968;2023-07-30T11:35:50;20.00;99.90
18043;DHT22;9146;48.074;11.968;2023-07-30T11:38:17;20.10;99.90
18043;DHT22;9146;48.074;11.968;2023-07-30T11:40:46;20.20;99.90
18043;DHT22;9146;48.074;11.968;2023-07-30T11:43:13;20.50;99.90
18043;DHT22;9146;48.074;11.968;2023-07-30T11:45:40;20.80;99.90
18043;DHT22;9146;48.074;11.968;2023-07-30T11:48:08;21.10;99.90
18043;DHT22;9146;48.074;11.968;2023-07-30T11:50:49;21.30;99.90
18043;DHT22;9146;48.074;11.968;2023-07-30T11:53:16;21.50;99.90
18043;DHT22;9146;48.074;11.968;2023-07-30T11:55:44;21.60;99.90
18043;DHT22;9146;48.074;11.968;2023-07-30T11:58:12;21.60;99.90
18043;DHT22;9146;48.074;11.968;2023-07-30T12:00:40;21.80;99.90
18043;DHT22;9146;48.074;11.968;2023-07-30T12:03:10;22.00;99.90
18043;DHT22;9146;48.074;11.968;2023-07-30T12:05:38;22.20;99.90
18043;DHT22;9146;48.074;11.968;2023-07-30T12:08:13;22.40;99.90
18043;DHT22;9146;48.074;11.968;2023-07-30T12:10:43;22.50;99.90
18043;DHT22;9146;48.074;11.968;2023-07-30T12:13:15;22.50;99.90
18043;DHT22;9146;48.074;11.968;2023-07-30T12:15:44;22.60;99.90
18043;DHT22;9146;48.074;11.968;2023-07-30T12:18:11;22.80;99.90
18043;DHT22;9146;48.074;11.968;2023-07-30T12:20:38;22.90;99.90
18043;DHT22;9146;48.074;11.968;2023-07-30T12:23:04;23.10;99.90
18043;DHT22;9146;48.074;11.968;2023-07-30T12:25:33;23.40;99.90
18043;DHT22;9146;48.074;11.968;2023-07-30T12:28:01;23.70;99.90
18043;DHT22;9146;48.074;11.968;2023-07-30T12:30:28;23.60;99.90
18043;DHT22;9146;48.074;11.968;2023-07-30T12:32:55;23.60;99.90
18043;DHT22;9146;48.074;11.968;2023-07-30T12:35:23;23.40;99.90
18043;DHT22;9146;48.074;11.968;2023-07-30T12:37:50;23.20;99.90
18043;DHT22;9146;48.074;11.968;2023-07-30T12:40:17;23.10;99.90
18043;DHT22;9146;48.074;11.968;2023-07-30T12:42:45;23.00;99.90
18043;DHT22;9146;48.074;11.968;2023-07-30T12:45:12;22.90;99.90
18043;DHT22;9146;48.074;11.968;2023-07-30T12:47:39;22.70;99.90
18043;DHT22;9146;48.074;11.968;2023-07-30T12:50:07;22.60;99.90
18043;DHT22;9146;48.074;11.968;2023-07-30T12:52:34;22.60;99.90
18043;DHT22;9146;48.074;11.968;2023-07-30T12:55:02;22.50;99.90
18043;DHT22;9146;48.074;11.968;2023-07-30T12:57:30;22.50;99.90
18043;DHT22;9146;48.074;11.968;2023-07-30T12:59:58;22.50;99.90
18043;DHT22;9146;48.074;11.968;2023-07-30T13:02:28;22.60;99.90
18043;DHT22;9146;48.074;11.968;2023-07-30T13:04:55;22.70;99.90
18043;DHT22;9146;48.074;11.968;2023-07-30T13:07:22;22.80;99.90
18043;DHT22;9146;48.074;11.968;2023-07-30T13:10:02;22.80;99.90
18043;DHT22;9146;48.074;11.968;2023-07-30T13:12:29;23.00;99.90
18043;DHT22;9146;48.074;11.968;2023-07-30T13:14:57;23.20;99.90
18043;DHT22;9146;48.074;11.968;2023-07-30T13:17:24;23.30;99.90
18043;DHT22;9146;48.074;11.968;2023-07-30T13:19:51;23.40;99.90
18043;DHT22;9146;48.074;11.968;2023-07-30T13:22:18;23.30;99.90
18043;DHT22;9146;48.074;11.968;2023-07-30T13:24:46;23.30;99.90
18043;DHT22;9146;48.074;11.968;2023-07-30T13:27:12;23.30;99.90
18043;DHT22;9146;48.074;11.968;2023-07-30T13:29:40;23.50;99.90
18043;DHT22;9146;48.074;11.968;2023-07-30T13:32:09;23.60;99.90
18043;DHT22;9146;48.074;11.968;2023-07-30T13:34:35;23.70;99.90
18043;DHT22;9146;48.074;11.968;2023-07-30T13:37:03;23.60;99.90
18043;DHT22;9146;48.074;11.968;2023-07-30T13:39:30;23.50;99.90
18043;DHT22;9146;48.074;11.968;2023-07-30T13:41:56;23.40;99.90
18043;DHT22;9146;48.074;11.968;2023-07-30T13:44:23;23.40;99.90
18043;DHT22;9146;48.074;11.968;2023-07-30T13:46:51;23.30;99.90
18043;DHT22;9146;48.074;11.968;2023-07-30T13:49:20;23.30;99.90
18043;DHT22;9146;48.074;11.968;2023-07-30T13:51:47;23.50;99.90
18043;DHT22;9146;48.074;11.968;2023-07-30T13:54:14;23.60;99.90
18043;DHT22;9146;48.074;11.968;2023-07-30T13:56:41;23.80;99.90
18043;DHT22;9146;48.074;11.968;2023-07-30T13:59:08;23.90;99.90
18043;DHT22;9146;48.074;11.968;2023-07-30T14:01:35;23.70;99.90
18043;DHT22;9146;48.074;11.968;2023-07-30T14:04:02;23.40;99.90
18043;DHT22;9146;48.074;11.968;2023-07-30T14:06:30;23.00;99.90
18043;DHT22;9146;48.074;11.968;2023-07-30T14:08:57;22.50;99.90
18043;DHT22;9146;48.074;11.968;2023-07-30T14:11:25;22.20;99.90
18043;DHT22;9146;48.074;11.968;2023-07-30T14:13:52;21.90;99.90
18043;DHT22;9146;48.074;11.968;2023-07-30T14:16:19;21.60;99.90
18043;DHT22;9146;48.074;11.968;2023-07-30T14:22:09;20.10;99.90
18043;DHT22;9146;48.074;11.968;2023-07-30T14:24:36;19.20;99.90
18043;DHT22;9146;48.074;11.968;2023-07-30T14:27:05;18.30;99.90
18043;DHT22;9146;48.074;11.968;2023-07-30T14:29:34;17.90;99.90
18043;DHT22;9146;48.074;11.968;2023-07-30T14:32:01;17.80;99.90
18043;DHT22;9146;48.074;11.968;2023-07-30T14:34:28;17.80;99.90
18043;DHT22;9146;48.074;11.968;2023-07-30T14:36:55;17.80;99.90
18043;DHT22;9146;48.074;11.968;2023-07-30T14:39:24;17.90;99.90
18043;DHT22;9146;48.074;11.968;2023-07-30T14:41:53;17.90;99.90
18043;DHT22;9146;48.074;11.968;2023-07-30T14:44:20;17.90;99.90
18043;DHT22;9146;48.074;11.968;2023-07-30T14:46:47;17.90;99.90
18043;DHT22;9146;48.074;11.968;2023-07-30T14:49:14;17.90;99.90
18043;DHT22;9146;48.074;11.968;2023-07-30T14:51:41;18.00;99.90
18043;DHT22;9146;48.074;11.968;2023-07-30T14:54:07;18.00;99.90
18043;DHT22;9146;48.074;11.968;2023-07-30T14:56:37;18.10;99.90
18043;DHT22;9146;48.074;11.968;2023-07-30T14:59:04;18.20;99.90
18043;DHT22;9146;48.074;11.968;2023-07-30T15:01:31;18.30;99.90
18043;DHT22;9146;48.074;11.968;2023-07-30T15:03:58;18.50;99.90
18043;DHT22;9146;48.074;11.968;2023-07-30T15:06:27;18.70;99.90
18043;DHT22;9146;48.074;11.968;2023-07-30T15:08:55;18.70;99.90
18043;DHT22;9146;48.074;11.968;2023-07-30T15:11:21;18.80;99.90
18043;DHT22;9146;48.074;11.968;2023-07-30T15:13:51;18.90;99.90
18043;DHT22;9146;48.074;11.968;2023-07-30T15:16:18;18.90;99.90
18043;DHT22;9146;48.074;11.968;2023-07-30T15:18:46;19.10;99.90
18043;DHT22;9146;48.074;11.968;2023-07-30T15:21:13;19.20;99.90
18043;DHT22;9146;48.074;11.968;2023-07-30T15:23:42;19.30;99.90
18043;DHT22;9146;48.074;11.968;2023-07-30T15:26:09;19.40;99.90
18043;DHT22;9146;48.074;11.968;2023-07-30T15:28:36;19.60;99.90
18043;DHT22;9146;48.074;11.968;2023-07-30T15:31:05;19.70;99.90
18043;DHT22;9146;48.074;11.968;2023-07-30T15:33:32;19.80;99.90
18043;DHT22;9146;48.074;11.968;2023-07-30T15:35:59;19.90;99.90